createdAt,value
2019-04-01T00:00:55.091Z,1.53
2019-04-01T00:03:26.177Z,1.50
2019-04-01T00:05:56.726Z,1.83
2019-04-01T00:08:27.087Z,1.70
2019-04-01T00:10:57.611Z,1.33
2019-04-01T00:13:29.032Z,1.63
2019-04-01T00:15:59.494Z,1.27
2019-04-01T00:18:29.931Z,1.30
2019-04-01T00:21:00.316Z,1.60
2019-04-01T00:23:30.757Z,1.77
2019-04-01T00:26:01.160Z,1.63
2019-04-01T00:28:31.744Z,2.10
2019-04-01T00:31:02.349Z,1.90
2019-04-01T00:33:32.860Z,1.47
2019-04-01T00:36:03.164Z,1.43
2019-04-01T00:38:34.576Z,1.63
2019-04-01T00:41:05.005Z,1.73
2019-04-01T00:44:00.720Z,1.53
2019-04-01T00:46:32.386Z,1.33
2019-04-01T00:49:03.391Z,1.97
2019-04-01T00:51:35.881Z,1.43
2019-04-01T00:54:09.215Z,2.30
2019-04-01T00:56:39.891Z,1.83
2019-04-01T00:59:10.306Z,1.87
2019-04-01T01:01:40.655Z,2.33
2019-04-01T01:04:11.195Z,1.60
2019-04-01T01:06:41.719Z,1.70
2019-04-01T01:09:11.995Z,1.70
2019-04-01T01:11:42.320Z,1.40
2019-04-01T01:14:12.697Z,1.70
2019-04-01T01:16:43.140Z,2.00
2019-04-01T01:19:13.461Z,1.10
2019-04-01T01:21:45.044Z,1.93
2019-04-01T01:24:15.393Z,1.17
2019-04-01T01:26:45.804Z,1.20
2019-04-01T01:29:16.196Z,1.57
2019-04-01T01:31:46.624Z,1.87
2019-04-01T01:34:21.337Z,1.53
2019-04-01T01:36:51.830Z,1.00
2019-04-01T01:39:22.116Z,1.40
2019-04-01T01:41:52.582Z,1.30
2019-04-01T01:44:24.031Z,1.33
2019-04-01T01:46:56.087Z,1.70
2019-04-01T01:49:26.539Z,1.50
2019-04-01T01:51:57.000Z,1.20
2019-04-01T01:54:27.334Z,1.00
2019-04-01T01:56:57.762Z,1.87
2019-04-01T01:59:28.143Z,1.40
2019-04-01T02:01:58.596Z,1.27
2019-04-01T02:04:29.017Z,1.70
2019-04-01T02:06:59.475Z,1.60
2019-04-01T02:09:29.903Z,1.20
2019-04-01T02:12:00.379Z,1.73
2019-04-01T02:14:30.663Z,1.80
2019-04-01T02:17:01.223Z,1.30
2019-04-01T02:19:31.648Z,2.17
2019-04-01T02:22:02.000Z,1.67
2019-04-01T02:24:32.338Z,1.53
2019-04-01T02:27:06.244Z,1.60
2019-04-01T02:29:36.554Z,1.33
2019-04-01T02:32:06.894Z,1.47
2019-04-01T02:34:37.423Z,1.27
2019-04-01T02:37:07.924Z,1.90
2019-04-01T02:39:38.257Z,1.83
2019-04-01T02:42:08.739Z,1.47
2019-04-01T02:44:40.832Z,1.17
2019-04-01T02:47:11.222Z,1.77
2019-04-01T02:49:41.541Z,1.20
2019-04-01T02:52:11.935Z,1.77
2019-04-01T02:54:42.357Z,1.60
2019-04-01T02:57:12.691Z,2.23
2019-04-01T02:59:43.091Z,1.93
2019-04-01T03:02:15.729Z,1.30
2019-04-01T03:04:46.123Z,1.10
2019-04-01T03:07:16.611Z,1.00
2019-04-01T03:09:46.917Z,1.73
2019-04-01T03:12:20.177Z,1.40
2019-04-01T03:14:50.717Z,1.83
2019-04-01T03:17:21.757Z,1.37
2019-04-01T03:19:52.263Z,1.33
2019-04-01T03:22:22.650Z,1.10
2019-04-01T03:24:52.930Z,1.07
2019-04-01T03:27:23.579Z,1.10
2019-04-01T03:29:53.997Z,1.43
2019-04-01T03:32:24.453Z,1.30
2019-04-01T03:34:54.899Z,1.33
2019-04-01T03:37:28.393Z,1.57
2019-04-01T03:39:58.744Z,1.37
2019-04-01T03:42:30.682Z,1.30
2019-04-01T03:45:00.986Z,1.07
2019-04-01T03:47:31.439Z,1.50
2019-04-01T03:50:01.804Z,1.37
2019-04-01T03:52:33.426Z,1.20
2019-04-01T03:55:03.820Z,1.60
2019-04-01T03:57:34.146Z,1.20
2019-04-01T04:00:05.077Z,1.27
2019-04-01T04:02:35.533Z,1.30
2019-04-01T04:05:06.177Z,1.40
2019-04-01T04:07:37.253Z,1.20
2019-04-01T04:10:07.606Z,1.30
2019-04-01T04:12:38.067Z,1.30
2019-04-01T04:15:08.529Z,1.23
2019-04-01T04:17:38.928Z,1.83
2019-04-01T04:20:09.253Z,1.60
2019-04-01T04:22:39.593Z,1.40
2019-04-01T04:25:12.958Z,1.10
2019-04-01T04:27:43.601Z,1.17
2019-04-01T04:30:18.771Z,1.83
2019-04-01T04:32:49.186Z,1.70
2019-04-01T04:35:23.318Z,1.60
2019-04-01T04:37:56.101Z,1.40
2019-04-01T04:40:30.844Z,1.50
2019-04-01T04:43:02.559Z,1.73
2019-04-01T04:45:33.069Z,1.50
2019-04-01T04:48:03.393Z,1.53
2019-04-01T04:50:33.917Z,1.50
2019-04-01T04:53:04.389Z,1.40
2019-04-01T04:55:37.961Z,0.90
2019-04-01T04:58:08.345Z,1.77
2019-04-01T05:00:38.989Z,2.00
2019-04-01T05:03:09.495Z,1.70
2019-04-01T05:05:39.945Z,1.53
2019-04-01T05:08:11.582Z,1.53
2019-04-01T05:10:44.092Z,1.20
2019-04-01T05:13:18.433Z,1.70
2019-04-01T05:15:54.686Z,2.40
2019-04-01T05:18:25.059Z,1.77
2019-04-01T05:20:56.420Z,1.40
2019-04-01T05:23:29.264Z,1.73
2019-04-01T05:25:59.777Z,1.50
2019-04-01T05:28:30.748Z,1.80
2019-04-01T05:31:01.592Z,1.77
2019-04-01T05:33:34.574Z,2.13
2019-04-01T05:36:05.054Z,2.03
2019-04-01T05:38:35.529Z,1.73
2019-04-01T05:41:06.724Z,1.70
2019-04-01T05:43:37.101Z,1.30
2019-04-01T05:46:07.711Z,1.93
2019-04-01T05:48:38.325Z,2.27
2019-04-01T05:51:08.678Z,1.40
2019-04-01T05:53:40.338Z,1.77
2019-04-01T05:56:12.924Z,2.03
2019-04-01T05:58:43.229Z,1.23
2019-04-01T06:01:17.424Z,1.27
2019-04-01T06:03:47.772Z,1.50
2019-04-01T06:06:18.136Z,2.43
2019-04-01T06:08:49.894Z,1.60
2019-04-01T06:11:20.313Z,1.50
2019-04-01T06:13:50.893Z,1.50
2019-04-01T06:16:22.343Z,1.40
2019-04-01T06:18:56.047Z,2.30
2019-04-01T06:21:26.481Z,1.50
2019-04-01T06:23:56.926Z,2.00
2019-04-01T06:26:27.242Z,1.77
2019-04-01T06:28:57.749Z,1.87
2019-04-01T06:31:28.221Z,1.37
2019-04-01T06:33:58.556Z,1.40
2019-04-01T06:36:29.265Z,1.60
2019-04-01T06:39:00.186Z,1.60
2019-04-01T06:41:30.465Z,2.07
2019-04-01T06:44:00.761Z,1.43
2019-04-01T06:46:31.143Z,1.50
2019-04-01T06:49:01.542Z,2.23
2019-04-01T06:51:34.000Z,1.60
2019-04-01T06:57:44.351Z,1.73
2019-04-01T07:00:14.892Z,1.47
2019-04-01T07:02:45.342Z,1.57
2019-04-01T07:05:15.784Z,1.40
2019-04-01T07:07:46.240Z,2.13
2019-04-01T07:10:16.646Z,1.70
2019-04-01T07:12:47.202Z,2.10
2019-04-01T07:15:17.682Z,1.60
2019-04-01T07:17:48.050Z,1.43
2019-04-01T07:20:18.525Z,3.10
2019-04-01T07:22:49.356Z,3.33
2019-04-01T07:25:22.089Z,1.57
2019-04-01T07:27:52.545Z,2.07
2019-04-01T07:30:22.874Z,2.10
2019-04-01T07:32:53.163Z,2.03
2019-04-01T07:35:24.582Z,2.00
2019-04-01T07:37:54.985Z,1.77
2019-04-01T07:40:25.444Z,2.10
2019-04-01T07:42:55.908Z,1.63
2019-04-01T07:45:26.530Z,1.93
2019-04-01T07:47:56.928Z,2.20
2019-04-01T07:50:27.355Z,2.00
2019-04-01T07:52:57.703Z,1.90
2019-04-01T07:55:29.811Z,2.13
2019-04-01T07:58:03.040Z,2.30
2019-04-01T08:00:35.652Z,2.63
2019-04-01T08:03:06.284Z,1.90
2019-04-01T08:05:37.014Z,2.30
2019-04-01T08:08:07.772Z,1.40
2019-04-01T08:10:38.451Z,2.23
2019-04-01T08:13:12.879Z,1.83
2019-04-01T08:15:46.298Z,2.33
2019-04-01T08:18:18.198Z,1.50
2019-04-01T08:20:48.560Z,2.20
2019-04-01T08:23:18.918Z,2.17
2019-04-01T08:25:49.306Z,2.40
2019-04-01T08:28:19.788Z,2.30
2019-04-01T08:30:50.311Z,2.33
2019-04-01T08:33:20.734Z,2.17
2019-04-01T08:35:51.784Z,2.73
2019-04-01T08:38:23.156Z,2.57
2019-04-01T08:40:53.521Z,2.87
2019-04-01T08:43:25.963Z,3.17
2019-04-01T08:45:56.286Z,3.17
2019-04-01T08:48:26.694Z,2.90
2019-04-01T08:50:57.086Z,2.63
2019-04-01T08:53:28.799Z,3.00
2019-04-01T08:56:01.026Z,2.40
2019-04-01T08:58:32.248Z,2.73
2019-04-01T09:01:02.581Z,2.37
2019-04-01T09:03:33.037Z,2.77
2019-04-01T09:17:07.316Z,2.53
2019-04-01T09:19:37.774Z,2.83
2019-04-01T09:22:08.385Z,3.03
2019-04-01T09:24:38.808Z,3.43
2019-04-01T09:27:09.249Z,3.07
2019-04-01T09:48:54.292Z,3.40
2019-04-01T09:51:26.165Z,4.00
2019-04-01T09:53:56.799Z,4.07
2019-04-01T09:56:27.316Z,3.83
2019-04-01T09:58:57.701Z,3.63
2019-04-01T10:01:30.808Z,3.93
2019-04-01T10:04:01.221Z,3.73
2019-04-01T10:06:31.733Z,3.90
2019-04-01T10:09:05.592Z,4.07
2019-04-01T10:11:36.492Z,4.03
2019-04-01T10:14:07.861Z,4.70
2019-04-01T10:16:38.412Z,3.47
2019-04-01T10:19:08.912Z,3.10
2019-04-01T10:21:41.389Z,4.27
2019-04-01T10:24:13.816Z,3.20
2019-04-01T10:26:45.007Z,2.93
2019-04-01T10:29:29.484Z,2.77
2019-04-01T10:32:00.183Z,3.03
2019-04-01T10:34:33.976Z,2.47
2019-04-01T10:37:05.014Z,3.17
2019-04-01T10:39:35.948Z,3.00
2019-04-01T10:42:09.243Z,2.90
2019-04-01T10:44:41.615Z,2.97
2019-04-01T10:47:12.819Z,2.73
2019-04-01T10:49:43.727Z,2.43
2019-04-01T10:52:14.811Z,2.53
2019-04-01T10:54:48.573Z,2.80
2019-04-01T10:57:20.666Z,3.10
2019-04-01T10:59:53.541Z,3.00
2019-04-01T11:02:24.906Z,3.20
2019-04-01T11:04:55.498Z,2.70
2019-04-01T11:07:26.024Z,3.20
2019-04-01T11:09:56.558Z,2.53
2019-04-01T11:12:27.092Z,2.97
2019-04-01T11:14:57.620Z,2.87
2019-04-01T11:17:28.026Z,4.00
2019-04-01T11:19:59.861Z,2.93
2019-04-01T11:22:31.961Z,3.57
2019-04-01T11:25:06.292Z,3.17
2019-04-01T11:27:36.790Z,3.13
2019-04-01T11:30:15.697Z,3.33
2019-04-01T11:32:52.651Z,3.03
2019-04-01T11:35:33.083Z,2.57
2019-04-01T11:38:14.617Z,2.70
2019-04-01T11:41:03.435Z,2.70
2019-04-01T11:43:43.286Z,3.37
2019-04-01T11:46:18.328Z,2.87
2019-04-01T11:51:56.480Z,2.63
2019-04-01T11:54:30.500Z,2.90
2019-04-01T11:57:01.736Z,2.57
2019-04-01T11:59:34.043Z,2.80
2019-04-01T12:02:05.120Z,2.93
2019-04-01T12:04:35.851Z,2.87
2019-04-01T12:07:07.222Z,3.23
2019-04-01T12:09:40.633Z,2.90
2019-04-01T12:12:23.390Z,2.97
2019-04-01T12:14:45.100Z,2.80
2019-04-01T12:17:16.089Z,3.43
2019-04-01T12:19:52.841Z,2.77
2019-04-01T12:22:21.987Z,2.43
2019-04-01T12:24:57.520Z,2.67
2019-04-01T12:27:28.209Z,3.00
2019-04-01T12:30:02.716Z,2.30
2019-04-01T12:32:39.417Z,2.70
2019-04-01T12:35:14.377Z,3.07
2019-04-01T12:37:54.469Z,3.10
2019-04-01T12:40:29.202Z,2.50
2019-04-01T12:43:03.330Z,2.80
2019-04-01T12:45:37.537Z,2.60
2019-04-01T12:48:09.090Z,2.67
2019-04-01T12:50:45.745Z,2.43
2019-04-01T12:53:20.013Z,2.40
2019-04-01T12:55:50.707Z,3.63
2019-04-01T12:58:25.371Z,3.47
2019-04-01T13:01:01.080Z,3.00
2019-04-01T13:03:35.752Z,2.83
2019-04-01T13:06:10.000Z,2.97
2019-04-01T13:08:43.565Z,2.50
2019-04-01T13:11:16.414Z,2.73
2019-04-01T13:13:51.525Z,2.70
2019-04-01T13:16:22.932Z,2.80
2019-04-01T13:18:54.885Z,2.60
2019-04-01T13:21:27.373Z,2.50
2019-04-01T13:24:00.872Z,2.30
2019-04-01T13:26:33.049Z,2.60
2019-04-01T13:29:06.165Z,2.77
2019-04-01T13:31:38.514Z,3.00
2019-04-01T13:34:10.198Z,2.67
2019-04-01T13:36:44.618Z,2.40
2019-04-01T13:39:16.877Z,2.90
2019-04-01T13:41:48.905Z,2.70
2019-04-01T13:44:19.296Z,2.57
2019-04-01T13:46:50.659Z,3.03
2019-04-01T13:49:21.171Z,2.73
2019-04-01T13:51:51.695Z,3.00
2019-04-01T13:54:22.065Z,2.40
2019-04-01T13:56:52.695Z,2.83
2019-04-01T13:59:23.111Z,2.60
2019-04-01T14:01:55.881Z,3.10
2019-04-01T14:04:26.557Z,2.53
2019-04-01T14:06:57.890Z,2.20
2019-04-01T14:09:30.830Z,2.83
2019-04-01T14:12:01.285Z,3.17
2019-04-01T14:29:39.883Z,3.70
2019-04-01T14:32:10.264Z,2.90
2019-04-01T14:34:40.667Z,3.47
2019-04-01T14:37:12.406Z,4.13
2019-04-01T14:39:43.760Z,4.53
2019-04-01T14:42:14.248Z,4.37
2019-04-01T14:44:51.994Z,3.37
2019-04-01T14:47:22.518Z,2.97
2019-04-01T14:49:52.984Z,2.83
2019-04-01T14:52:32.343Z,4.10
2019-04-01T14:54:56.477Z,2.97
2019-04-01T14:57:26.950Z,3.50
2019-04-01T15:00:01.150Z,3.50
2019-04-01T15:02:33.112Z,3.70
2019-04-01T15:05:05.118Z,3.77
2019-04-01T15:07:35.603Z,3.40
2019-04-01T15:10:06.852Z,3.53
2019-04-01T15:12:37.286Z,3.23
2019-04-01T15:15:08.322Z,3.07
2019-04-01T15:17:38.875Z,3.40
2019-04-01T15:20:09.784Z,3.57
2019-04-01T15:22:40.199Z,3.80
2019-04-01T15:25:10.695Z,3.37
2019-04-01T15:27:41.173Z,3.03
2019-04-01T15:30:14.150Z,3.40
2019-04-01T15:32:43.728Z,3.27
2019-04-01T15:35:14.328Z,3.23
2019-04-01T15:37:44.682Z,3.07
2019-04-01T15:40:15.770Z,4.00
2019-04-01T15:42:46.754Z,3.07
2019-04-01T15:45:17.247Z,3.03
2019-04-01T15:47:47.623Z,3.27
2019-04-01T15:50:28.176Z,2.67
2019-04-01T15:52:50.066Z,4.20
2019-04-01T15:55:20.376Z,3.30
2019-04-01T15:57:50.735Z,3.03
2019-04-01T16:00:21.144Z,3.33
2019-04-01T16:02:57.169Z,2.83
2019-04-01T16:05:30.384Z,3.57
2019-04-01T16:07:59.647Z,3.20
2019-04-01T16:10:30.268Z,3.47
2019-04-01T16:13:02.926Z,3.00
2019-04-01T16:15:33.412Z,3.20
2019-04-01T16:18:03.826Z,3.27
2019-04-01T16:20:34.427Z,3.13
2019-04-01T16:23:04.820Z,3.20
2019-04-01T16:25:37.681Z,3.80
2019-04-01T16:28:09.954Z,3.83
2019-04-01T16:30:40.306Z,2.83
2019-04-01T16:33:10.655Z,2.83
2019-04-01T16:35:41.037Z,3.00
2019-04-01T16:38:11.394Z,3.27
2019-04-01T16:40:43.398Z,4.00
2019-04-01T16:43:13.805Z,3.70
2019-04-01T16:45:49.651Z,3.20
2019-04-01T16:48:20.187Z,3.33
2019-04-01T16:50:50.609Z,3.63
2019-04-01T16:53:20.988Z,3.30
2019-04-01T16:55:51.384Z,2.97
2019-04-01T16:58:21.785Z,4.07
2019-04-01T17:00:52.425Z,3.60
2019-04-01T17:03:36.834Z,2.90
2019-04-01T17:06:08.806Z,3.17
2019-04-01T17:08:39.258Z,3.30
2019-04-01T17:11:09.846Z,2.90
2019-04-01T17:13:40.181Z,3.10
2019-04-01T17:16:10.495Z,3.33
2019-04-01T17:18:41.246Z,3.00
2019-04-01T17:21:11.892Z,4.63
2019-04-01T17:23:42.261Z,4.47
2019-04-01T17:26:12.711Z,4.13
2019-04-01T17:28:43.157Z,4.00
2019-04-01T17:31:13.607Z,4.20
2019-04-01T17:33:44.021Z,4.33
2019-04-01T17:36:15.909Z,4.03
2019-04-01T17:38:48.192Z,4.00
2019-04-01T17:41:18.840Z,3.80
2019-04-01T17:43:49.244Z,3.60
2019-04-01T17:46:19.774Z,3.70
2019-04-01T17:48:50.232Z,3.13
2019-04-01T17:51:20.608Z,4.30
2019-04-01T17:53:51.218Z,4.50
2019-04-01T17:56:21.530Z,4.50
2019-04-01T17:58:51.961Z,5.67
2019-04-01T18:01:23.937Z,7.77
2019-04-01T18:03:55.419Z,9.17
2019-04-01T18:06:26.109Z,8.20
2019-04-01T18:09:04.461Z,7.60
2019-04-01T18:11:36.596Z,7.90
2019-04-01T18:14:07.153Z,6.37
2019-04-01T18:16:41.113Z,5.70
2019-04-01T18:19:11.783Z,4.70
2019-04-01T18:21:42.309Z,4.33
2019-04-01T18:24:12.817Z,4.27
2019-04-01T18:26:43.699Z,3.57
2019-04-01T18:29:14.165Z,4.03
2019-04-01T18:31:44.727Z,4.10
2019-04-01T18:34:15.242Z,4.53
2019-04-01T18:36:45.791Z,4.83
2019-04-01T18:39:16.234Z,4.90
2019-04-01T18:41:49.159Z,5.13
2019-04-01T18:44:22.082Z,4.20
2019-04-01T18:46:54.199Z,3.87
2019-04-01T18:49:26.864Z,4.23
2019-04-01T18:51:57.506Z,4.60
2019-04-01T18:54:27.989Z,4.50
2019-04-01T18:57:03.513Z,3.80
2019-04-01T18:59:31.581Z,5.10
2019-04-01T19:02:06.352Z,4.57
2019-04-01T19:04:36.924Z,4.80
2019-04-01T19:07:09.822Z,4.73
2019-04-01T19:09:42.556Z,4.57
2019-04-01T19:12:14.183Z,6.37
2019-04-01T19:14:45.759Z,4.57
2019-04-01T19:17:20.533Z,4.60
2019-04-01T19:19:57.345Z,4.37
2019-04-01T19:22:30.742Z,4.60
2019-04-01T19:25:04.258Z,5.60
2019-04-01T19:27:41.129Z,4.03
2019-04-01T19:30:14.921Z,5.83
2019-04-01T19:32:50.818Z,4.73
2019-04-01T19:35:25.974Z,4.80
2019-04-01T19:38:00.695Z,5.13
2019-04-01T19:40:31.352Z,4.87
2019-04-01T19:43:04.854Z,5.30
2019-04-01T19:45:35.773Z,4.73
2019-04-01T19:48:09.305Z,5.43
2019-04-01T19:50:41.815Z,5.53
2019-04-01T19:53:15.161Z,5.07
2019-04-01T19:55:48.448Z,5.23
2019-04-01T19:58:21.750Z,4.73
2019-04-01T20:00:55.219Z,5.07
2019-04-01T20:03:31.822Z,4.70
2019-04-01T20:06:03.234Z,5.30
2019-04-01T20:08:37.748Z,4.93
2019-04-01T20:11:11.446Z,4.80
2019-04-01T20:13:43.070Z,5.37
2019-04-01T20:16:13.466Z,5.27
2019-04-01T20:18:45.396Z,5.43
2019-04-01T20:21:15.719Z,5.97
2019-04-01T20:23:46.207Z,5.13
2019-04-01T20:26:17.386Z,5.47
2019-04-01T20:28:49.162Z,5.30
2019-04-01T20:31:20.664Z,5.60
2019-04-01T20:33:56.894Z,5.40
2019-04-01T20:36:30.206Z,5.43
2019-04-01T20:39:08.934Z,5.77
2019-04-01T20:41:39.686Z,6.30
2019-04-01T20:44:11.438Z,6.13
2019-04-01T20:46:47.616Z,6.00
2019-04-01T20:49:23.106Z,5.57
2019-04-01T20:51:54.985Z,5.57
2019-04-01T20:54:28.479Z,5.83
2019-04-01T20:56:59.217Z,5.93
2019-04-01T20:59:30.415Z,5.73
2019-04-01T21:02:01.234Z,5.07
2019-04-01T21:04:31.757Z,5.03
2019-04-01T21:07:02.336Z,5.00
2019-04-01T21:09:32.966Z,5.20
2019-04-01T21:12:09.652Z,5.13
2019-04-01T21:14:40.149Z,5.80
2019-04-01T21:17:10.565Z,5.97
2019-04-01T21:19:42.137Z,5.77
2019-04-01T21:22:14.371Z,5.90
2019-04-01T21:24:44.781Z,5.57
2019-04-01T21:27:15.277Z,5.30
2019-04-01T21:29:45.681Z,6.07
2019-04-01T21:32:17.038Z,5.60
2019-04-01T21:34:47.611Z,5.17
2019-04-01T21:37:17.991Z,5.30
2019-04-01T21:39:50.220Z,5.37
2019-04-01T21:42:21.125Z,5.50
2019-04-01T21:44:52.384Z,5.37
2019-04-01T21:47:22.696Z,5.57
2019-04-01T21:49:53.047Z,5.70
2019-04-01T21:52:23.472Z,5.57
2019-04-01T21:54:54.009Z,5.30
2019-04-01T21:57:24.396Z,5.70
2019-04-01T21:59:55.794Z,5.43
2019-04-01T22:02:35.542Z,5.80
2019-04-01T22:04:58.104Z,6.43
2019-04-01T22:07:28.449Z,6.13
2019-04-01T22:09:58.760Z,6.10
2019-04-01T22:12:29.071Z,6.13
2019-04-01T22:14:59.473Z,6.20
2019-04-01T22:17:29.770Z,6.60
2019-04-01T22:20:00.310Z,6.23
2019-04-01T22:22:30.736Z,6.10
2019-04-01T22:25:01.360Z,6.53
2019-04-01T22:27:31.917Z,6.50
2019-04-01T22:30:02.199Z,6.70
2019-04-01T22:32:32.490Z,6.40
2019-04-01T22:35:05.211Z,6.17
2019-04-01T22:37:35.055Z,6.47
2019-04-01T22:40:05.680Z,6.30
2019-04-01T22:42:37.167Z,6.80
2019-04-01T22:45:07.536Z,7.10
2019-04-01T22:47:37.852Z,6.97
2019-04-01T22:50:10.129Z,6.57
2019-04-01T22:52:43.336Z,6.43
2019-04-01T22:55:13.697Z,6.93
2019-04-01T22:57:44.022Z,6.90
2019-04-01T23:00:14.400Z,6.40
2019-04-01T23:02:45.815Z,6.10
2019-04-01T23:05:16.167Z,6.57
2019-04-01T23:07:46.574Z,6.40
2019-04-01T23:10:16.976Z,6.50
2019-04-01T23:12:47.292Z,6.47
2019-04-01T23:15:17.797Z,5.67
2019-04-01T23:17:48.159Z,6.20
2019-04-01T23:20:18.615Z,7.20
2019-04-01T23:22:50.008Z,6.80
2019-04-01T23:25:20.413Z,6.00
2019-04-01T23:27:50.839Z,6.13
2019-04-01T23:30:21.781Z,6.47
2019-04-01T23:32:52.125Z,6.97
2019-04-01T23:35:22.639Z,7.00
2019-04-01T23:37:53.112Z,6.43
2019-04-01T23:40:24.697Z,6.60
2019-04-01T23:42:55.046Z,6.60
2019-04-01T23:45:25.536Z,7.23
2019-04-01T23:47:55.943Z,7.13
2019-04-01T23:50:26.291Z,6.77
2019-04-01T23:52:56.739Z,5.97
2019-04-01T23:55:27.076Z,6.93
2019-04-01T23:57:57.427Z,6.97
